createdAt,value
2018-08-21T00:00:27.982Z,63.5
2018-08-21T00:01:08.548Z,63.5
2018-08-21T00:01:49.108Z,63.79
2018-08-21T00:02:29.676Z,63.6
2018-08-21T00:03:10.233Z,63.41
2018-08-21T00:03:50.800Z,63.5
2018-08-21T00:04:31.352Z,63.5
2018-08-21T00:05:11.918Z,63.89
2018-08-21T00:05:52.482Z,63.54
2018-08-21T00:06:33.046Z,64.28
2018-08-21T00:07:13.618Z,63.54
2018-08-21T00:07:54.187Z,63.7
2018-08-21T00:08:34.753Z,63.82
2018-08-21T00:09:15.357Z,62.86
2018-08-21T00:09:55.915Z,62.57
2018-08-21T00:10:36.485Z,62.66
2018-08-21T00:11:17.054Z,62.54
2018-08-21T00:11:57.623Z,62.76
2018-08-21T00:12:38.181Z,63.5
2018-08-21T00:13:18.743Z,63.41
2018-08-21T00:13:59.314Z,63.63
2018-08-21T00:14:39.884Z,63.12
2018-08-21T00:15:20.455Z,63.44
2018-08-21T00:16:01.030Z,63.6
2018-08-21T00:16:41.608Z,63.54
2018-08-21T00:17:22.180Z,63.02
2018-08-21T00:18:02.764Z,62.63
2018-08-21T00:18:43.328Z,62.57
2018-08-21T00:19:23.889Z,62.76
2018-08-21T00:20:04.453Z,62.57
2018-08-21T00:20:45.021Z,62.63
2018-08-21T00:21:25.595Z,62.96
2018-08-21T00:22:06.148Z,63.02
2018-08-21T00:22:46.732Z,63.34
2018-08-21T00:23:27.300Z,63.63
2018-08-21T00:24:07.855Z,63.34
2018-08-21T00:24:48.426Z,63.21
2018-08-21T00:25:28.987Z,63.34
2018-08-21T00:26:09.551Z,62.83
2018-08-21T00:26:50.115Z,63.12
2018-08-21T00:27:30.672Z,63.15
2018-08-21T00:28:11.249Z,62.45
2018-08-21T00:28:51.802Z,62.54
2018-08-21T00:29:32.420Z,62.93
2018-08-21T00:30:12.978Z,62.93
2018-08-21T00:30:53.536Z,62.93
2018-08-21T00:31:34.092Z,62.45
2018-08-21T00:32:14.652Z,62.54
2018-08-21T00:32:55.220Z,62.73
2018-08-21T00:33:35.772Z,62.45
2018-08-21T00:34:16.374Z,62.63
2018-08-21T00:34:56.934Z,62.73
2018-08-21T00:35:37.497Z,62.73
2018-08-21T00:36:18.058Z,63.31
2018-08-21T00:36:58.611Z,63.21
2018-08-21T00:37:39.178Z,63.12
2018-08-21T00:38:19.743Z,63.41
2018-08-21T00:39:00.301Z,62.96
2018-08-21T00:39:40.865Z,62.86
2018-08-21T00:40:21.426Z,62.96
2018-08-21T00:41:01.989Z,62.45
2018-08-21T00:41:42.552Z,62.86
2018-08-21T00:42:23.115Z,62.73
2018-08-21T00:43:03.676Z,63.02
2018-08-21T00:43:44.242Z,62.54
2018-08-21T00:44:24.801Z,62.45
2018-08-21T00:45:05.425Z,63.02
2018-08-21T00:45:45.976Z,63.02
2018-08-21T00:46:26.538Z,63.31
2018-08-21T00:47:07.095Z,63.31
2018-08-21T00:47:47.658Z,63.41
2018-08-21T00:48:28.220Z,62.93
2018-08-21T00:49:08.776Z,62.93
2018-08-21T00:49:49.352Z,63.02
2018-08-21T00:50:29.911Z,63.21
2018-08-21T00:51:10.481Z,63.41
2018-08-21T00:51:51.056Z,63.6
2018-08-21T00:52:31.611Z,63.5
2018-08-21T00:53:12.183Z,63.5
2018-08-21T00:53:52.746Z,63.5
2018-08-21T00:54:33.299Z,63.31
2018-08-21T00:55:13.855Z,63.5
2018-08-21T00:55:54.418Z,63.41
2018-08-21T00:56:34.991Z,63.41
2018-08-21T00:57:15.556Z,63.41
2018-08-21T00:57:56.118Z,63.02
2018-08-21T00:58:36.691Z,62.93
2018-08-21T00:59:17.271Z,63.21
2018-08-21T00:59:57.829Z,63.5
2018-08-21T01:00:38.399Z,63.21
2018-08-21T01:01:18.957Z,63.79
2018-08-21T01:01:59.560Z,63.6
2018-08-21T01:02:40.124Z,63.5
2018-08-21T01:03:20.680Z,63.02
2018-08-21T01:04:01.248Z,63.79
2018-08-21T01:04:41.803Z,62.93
2018-08-21T01:05:22.367Z,63.79
2018-08-21T01:06:02.941Z,63.98
2018-08-21T01:06:43.497Z,64.08
2018-08-21T01:07:24.074Z,63.7
2018-08-21T01:08:04.642Z,64.28
2018-08-21T01:08:45.209Z,64.47
2018-08-21T01:09:25.767Z,64.18
2018-08-21T01:10:06.333Z,64.18
2018-08-21T01:10:46.905Z,63.12
2018-08-21T01:11:27.466Z,63.41
2018-08-21T01:12:08.033Z,63.41
2018-08-21T01:12:48.601Z,63.5
2018-08-21T01:13:29.175Z,63.41
2018-08-21T01:14:09.743Z,63.12
2018-08-21T01:14:50.311Z,63.79
2018-08-21T01:15:30.871Z,64.56
2018-08-21T01:16:11.431Z,63.89
2018-08-21T01:16:51.997Z,63.6
2018-08-21T01:17:32.562Z,63.79
2018-08-21T01:18:13.137Z,64.08
2018-08-21T01:18:53.698Z,64.37
2018-08-21T01:19:34.253Z,64.47
2018-08-21T01:20:14.823Z,64.86
2018-08-21T01:20:55.421Z,64.76
2018-08-21T01:21:35.987Z,64.56
2018-08-21T01:22:16.555Z,63.98
2018-08-21T01:22:57.121Z,63.7
2018-08-21T01:23:37.686Z,63.7
2018-08-21T01:24:18.252Z,63.7
2018-08-21T01:24:58.816Z,64.53
2018-08-21T01:25:39.375Z,64.18
2018-08-21T01:26:19.939Z,64.37
2018-08-21T01:27:00.504Z,64.66
2018-08-21T01:27:41.065Z,64.76
2018-08-21T01:28:21.635Z,64.43
2018-08-21T01:29:02.194Z,64.86
2018-08-21T01:29:42.762Z,64.76
2018-08-21T01:30:23.323Z,64.56
2018-08-21T01:31:03.882Z,64.86
2018-08-21T01:31:44.440Z,65.14
2018-08-21T01:32:25.009Z,64.95
2018-08-21T01:33:05.565Z,64.47
2018-08-21T01:33:46.134Z,64.56
2018-08-21T01:34:26.697Z,64.66
2018-08-21T01:35:07.262Z,64.95
2018-08-21T01:35:47.842Z,64.66
2018-08-21T01:36:28.415Z,64.76
2018-08-21T01:37:08.971Z,64.76
2018-08-21T01:37:49.544Z,64.37
2018-08-21T01:38:30.129Z,63.5
2018-08-21T01:39:10.693Z,64.18
2018-08-21T01:39:51.260Z,63.98
2018-08-21T01:40:31.827Z,64.18
2018-08-21T01:41:12.378Z,64.15
2018-08-21T01:41:52.931Z,63.5
2018-08-21T01:42:33.502Z,64.05
2018-08-21T01:43:14.054Z,64.53
2018-08-21T01:43:54.616Z,64.25
2018-08-21T01:44:35.183Z,63.98
2018-08-21T01:45:15.748Z,64.15
2018-08-21T01:45:56.325Z,64.15
2018-08-21T01:46:36.897Z,64.15
2018-08-21T01:47:17.460Z,64.73
2018-08-21T01:47:58.028Z,64.82
2018-08-21T01:48:38.588Z,64.73
2018-08-21T01:49:19.157Z,64.82
2018-08-21T01:49:59.722Z,65.2
2018-08-21T01:50:40.293Z,65.2
2018-08-21T01:51:20.870Z,65.2
2018-08-21T01:52:01.440Z,65.5
2018-08-21T01:52:42.012Z,65.59
2018-08-21T01:53:22.589Z,65.59
2018-08-21T01:54:03.155Z,65.88
2018-08-21T01:54:43.715Z,65.3
2018-08-21T01:55:24.289Z,65.98
2018-08-21T01:56:04.870Z,65.78
2018-08-21T01:56:45.431Z,65.69
2018-08-21T01:57:25.993Z,64.92
2018-08-21T01:58:06.574Z,65.3
2018-08-21T01:58:47.191Z,65.4
2018-08-21T01:59:27.744Z,66.17
2018-08-21T02:00:08.312Z,66.36
2018-08-21T02:00:48.879Z,65.69
2018-08-21T02:01:29.446Z,65.3
2018-08-21T02:02:10.033Z,65.69
2018-08-21T02:02:50.598Z,65.5
2018-08-21T02:03:31.159Z,65.5
2018-08-21T02:04:11.732Z,65.69
2018-08-21T02:04:52.301Z,65.59
2018-08-21T02:05:32.869Z,66.07
2018-08-21T02:06:13.423Z,65.59
2018-08-21T02:06:53.992Z,65.5
2018-08-21T02:07:34.554Z,65.69
2018-08-21T02:08:15.143Z,65.78
2018-08-21T02:08:55.678Z,65.3
2018-08-21T02:09:36.268Z,66.17
2018-08-21T02:10:16.833Z,65.98
2018-08-21T02:10:57.433Z,65.88
2018-08-21T02:11:37.977Z,65.98
2018-08-21T02:12:18.541Z,66.36
2018-08-21T02:12:59.119Z,66.17
2018-08-21T02:13:39.684Z,65.94
2018-08-21T02:14:20.248Z,66.17
2018-08-21T02:15:00.820Z,66.17
2018-08-21T02:15:41.378Z,66.17
2018-08-21T02:16:21.938Z,66.17
2018-08-21T02:17:02.506Z,66.27
2018-08-21T02:17:43.059Z,66.46
2018-08-21T02:18:23.627Z,66.36
2018-08-21T02:19:04.199Z,66.07
2018-08-21T02:19:44.767Z,66.17
2018-08-21T02:20:25.335Z,66.36
2018-08-21T02:21:05.896Z,66.17
2018-08-21T02:21:46.463Z,65.88
2018-08-21T02:22:27.027Z,65.88
2018-08-21T02:23:07.598Z,66.07
2018-08-21T02:23:48.163Z,66.17
2018-08-21T02:24:28.748Z,66.07
2018-08-21T02:25:09.304Z,66.17
2018-08-21T02:25:49.864Z,66.27
2018-08-21T02:26:30.429Z,66.94
2018-08-21T02:27:11.014Z,66.85
2018-08-21T02:27:51.570Z,66.36
2018-08-21T02:28:32.149Z,66.27
2018-08-21T02:29:12.740Z,66.04
2018-08-21T02:29:53.298Z,66.17
2018-08-21T02:30:33.855Z,66.33
2018-08-21T02:31:14.428Z,66.27
2018-08-21T02:31:55.149Z,66.27
2018-08-21T02:32:35.633Z,66.46
2018-08-21T02:33:16.186Z,66.46
2018-08-21T02:33:56.743Z,66.46
2018-08-21T02:34:37.309Z,66.65
2018-08-21T02:35:17.869Z,66.65
2018-08-21T02:35:58.439Z,66.55
2018-08-21T02:36:39.013Z,66.36
2018-08-21T02:37:19.571Z,66.17
2018-08-21T02:38:00.144Z,65.75
2018-08-21T02:38:40.708Z,66.14
2018-08-21T02:39:21.270Z,66.24
2018-08-21T02:40:01.837Z,66.62
2018-08-21T02:40:42.397Z,66.33
2018-08-21T02:41:22.966Z,66.81
2018-08-21T02:42:03.535Z,66.91
2018-08-21T02:42:44.110Z,67
2018-08-21T02:43:24.688Z,67.1
2018-08-21T02:44:05.247Z,66.91
2018-08-21T02:44:45.817Z,66.94
2018-08-21T02:45:26.382Z,66.81
2018-08-21T02:46:06.939Z,66.81
2018-08-21T02:46:47.508Z,66.24
2018-08-21T02:47:28.076Z,66.71
2018-08-21T02:48:08.641Z,66.81
2018-08-21T02:48:49.257Z,67.29
2018-08-21T02:49:29.774Z,67
2018-08-21T02:50:10.354Z,66.71
2018-08-21T02:50:50.938Z,66.91
2018-08-21T02:51:31.500Z,66.91
2018-08-21T02:52:12.067Z,67
2018-08-21T02:52:52.627Z,66.75
2018-08-21T02:53:33.199Z,66.71
2018-08-21T02:54:13.762Z,66.71
2018-08-21T02:54:54.322Z,66.71
2018-08-21T02:55:34.883Z,67
2018-08-21T02:56:15.463Z,67.1
2018-08-21T02:56:56.015Z,66.91
2018-08-21T02:57:36.575Z,67
2018-08-21T02:58:17.158Z,67.1
2018-08-21T02:58:57.727Z,66.81
2018-08-21T02:59:38.288Z,67.13
2018-08-21T03:00:18.857Z,66.71
2018-08-21T03:00:59.428Z,67.03
2018-08-21T03:01:40.014Z,66.85
2018-08-21T03:02:20.590Z,66.36
2018-08-21T03:03:01.160Z,66.27
2018-08-21T03:03:41.729Z,66.52
2018-08-21T03:04:22.297Z,67.03
2018-08-21T03:05:02.863Z,67.03
2018-08-21T03:05:43.418Z,66.94
2018-08-21T03:06:23.987Z,66.52
2018-08-21T03:07:04.556Z,66.36
2018-08-21T03:07:45.118Z,66.33
2018-08-21T03:08:25.672Z,66.62
2018-08-21T03:09:06.270Z,66.14
2018-08-21T03:09:46.832Z,66.71
2018-08-21T03:10:27.445Z,66.33
2018-08-21T03:11:07.988Z,66.42
2018-08-21T03:11:48.567Z,66.42
2018-08-21T03:12:29.145Z,66.33
2018-08-21T03:13:09.721Z,66.81
2018-08-21T03:13:50.269Z,66.62
2018-08-21T03:14:30.838Z,66.33
2018-08-21T03:15:11.619Z,66.62
2018-08-21T03:15:52.324Z,66.24
2018-08-21T03:16:33.038Z,66.52
2018-08-21T03:17:13.673Z,66.42
2018-08-21T03:17:54.269Z,66.62
2018-08-21T03:18:35.045Z,66.14
2018-08-21T03:19:15.749Z,66.33
2018-08-21T03:19:56.452Z,66.24
2018-08-21T03:20:37.287Z,65.94
2018-08-21T03:21:17.918Z,65.94
2018-08-21T03:21:58.476Z,65.85
2018-08-21T03:22:39.064Z,65.85
2018-08-21T03:23:19.743Z,65.37
2018-08-21T03:24:00.327Z,65.17
2018-08-21T03:24:40.886Z,65.27
2018-08-21T03:25:21.441Z,65.56
2018-08-21T03:26:02.008Z,65.66
2018-08-21T03:26:42.574Z,65.66
2018-08-21T03:27:23.130Z,66.14
2018-08-21T03:28:03.701Z,65.43
2018-08-21T03:28:44.290Z,65.66
2018-08-21T03:29:24.835Z,66.04
2018-08-21T03:30:05.425Z,66.04
2018-08-21T03:30:46.013Z,65.53
2018-08-21T03:31:26.573Z,66.01
2018-08-21T03:32:07.145Z,66.49
2018-08-21T03:32:47.708Z,66.1
2018-08-21T03:33:28.267Z,66.3
2018-08-21T03:34:08.825Z,66.39
2018-08-21T03:34:49.383Z,66.2
2018-08-21T03:35:29.949Z,66.58
2018-08-21T03:36:10.667Z,66.3
2018-08-21T03:36:51.255Z,66.68
2018-08-21T03:37:31.815Z,66.58
2018-08-21T03:38:12.394Z,66.58
2018-08-21T03:38:52.992Z,66.39
2018-08-21T03:39:33.567Z,66.88
2018-08-21T03:40:14.138Z,66.78
2018-08-21T03:40:54.692Z,66.3
2018-08-21T03:41:35.256Z,66.33
2018-08-21T03:42:15.830Z,66.58
2018-08-21T03:42:56.402Z,66.33
2018-08-21T03:43:36.969Z,66.81
2018-08-21T03:44:17.543Z,66.71
2018-08-21T03:44:58.109Z,66.33
2018-08-21T03:45:38.680Z,66.14
2018-08-21T03:46:19.248Z,65.94
2018-08-21T03:46:59.801Z,66.04
2018-08-21T03:47:40.360Z,65.81
2018-08-21T03:48:20.924Z,65.08
2018-08-21T03:49:01.483Z,65.17
2018-08-21T03:49:42.044Z,65.81
2018-08-21T03:50:22.645Z,65.91
2018-08-21T03:51:03.419Z,65.43
2018-08-21T03:51:44.083Z,65.53
2018-08-21T03:52:24.652Z,65.81
2018-08-21T03:53:06.038Z,65.33
2018-08-21T03:53:46.606Z,66.1
2018-08-21T03:54:27.174Z,66.01
2018-08-21T03:55:07.809Z,66.01
2018-08-21T03:55:48.362Z,66.3
2018-08-21T03:56:28.922Z,66.3
2018-08-21T03:57:09.492Z,66.1
2018-08-21T03:57:50.116Z,66.1
2018-08-21T03:58:30.675Z,66.01
2018-08-21T03:59:11.315Z,65.81
2018-08-21T03:59:51.901Z,65.81
2018-08-21T04:00:32.446Z,66.01
2018-08-21T04:01:13.006Z,66.01
2018-08-21T04:01:53.684Z,66.1
2018-08-21T04:02:34.235Z,65.81
2018-08-21T04:03:14.789Z,66.01
2018-08-21T04:03:55.351Z,66.01
2018-08-21T04:04:35.932Z,66.01
2018-08-21T04:05:16.505Z,65.81
2018-08-21T04:05:57.062Z,66.01
2018-08-21T04:06:37.629Z,65.81
2018-08-21T04:07:18.198Z,65.53
2018-08-21T04:07:58.755Z,65.43
2018-08-21T04:08:39.334Z,65.53
2018-08-21T04:09:19.909Z,65.43
2018-08-21T04:10:00.470Z,65.53
2018-08-21T04:10:41.023Z,65.72
2018-08-21T04:11:21.594Z,66.01
2018-08-21T04:12:02.171Z,65.91
2018-08-21T04:12:42.764Z,65.24
2018-08-21T04:13:23.315Z,65.72
2018-08-21T04:14:03.875Z,65.63
2018-08-21T04:14:44.447Z,65.53
2018-08-21T04:15:25.000Z,66.01
2018-08-21T04:16:05.567Z,66.3
2018-08-21T04:16:46.136Z,66.2
2018-08-21T04:17:26.689Z,66.68
2018-08-21T04:18:07.253Z,66.88
2018-08-21T04:18:47.816Z,67.07
2018-08-21T04:19:28.379Z,66.88
2018-08-21T04:20:08.932Z,66.3
2018-08-21T04:20:49.506Z,66.49
2018-08-21T04:21:30.068Z,66.78
2018-08-21T04:22:10.632Z,66.58
2018-08-21T04:22:51.196Z,66.58
2018-08-21T04:23:31.763Z,66.39
2018-08-21T04:24:12.331Z,66.39
2018-08-21T04:24:52.897Z,66.3
2018-08-21T04:25:33.476Z,66.78
2018-08-21T04:26:14.062Z,66.39
2018-08-21T04:26:54.621Z,66.2
2018-08-21T04:27:35.195Z,65.43
2018-08-21T04:28:15.757Z,65.14
2018-08-21T04:28:56.318Z,65.24
2018-08-21T04:29:36.894Z,65.24
2018-08-21T04:30:17.460Z,65.53
2018-08-21T04:30:58.045Z,65.81
2018-08-21T04:31:38.588Z,65.43
2018-08-21T04:32:19.146Z,64.95
2018-08-21T04:32:59.748Z,64.95
2018-08-21T04:33:40.321Z,64.95
2018-08-21T04:34:20.911Z,64.95
2018-08-21T04:35:01.501Z,65.24
2018-08-21T04:35:42.052Z,65.91
2018-08-21T04:36:22.675Z,66.01
2018-08-21T04:37:03.221Z,66.49
2018-08-21T04:37:43.786Z,66.1
2018-08-21T04:38:24.369Z,65.81
2018-08-21T04:39:04.931Z,65.63
2018-08-21T04:39:45.484Z,65.33
2018-08-21T04:40:26.080Z,65.53
2018-08-21T04:41:06.669Z,65.14
2018-08-21T04:41:47.233Z,64.56
2018-08-21T04:42:27.816Z,64.95
2018-08-21T04:43:08.399Z,65.53
2018-08-21T04:43:48.978Z,65.72
2018-08-21T04:44:29.535Z,65.14
2018-08-21T04:45:10.104Z,65.05
2018-08-21T04:45:50.710Z,65.05
2018-08-21T04:46:31.374Z,65.14
2018-08-21T04:47:11.919Z,64.76
2018-08-21T04:47:52.491Z,64.56
2018-08-21T04:48:33.048Z,64.56
2018-08-21T04:49:13.620Z,65.24
2018-08-21T04:49:54.188Z,65.05
2018-08-21T04:50:34.770Z,65.81
2018-08-21T04:51:15.382Z,65.53
2018-08-21T04:51:55.936Z,65.91
2018-08-21T04:52:36.512Z,65.05
2018-08-21T04:53:17.111Z,64.95
2018-08-21T04:53:57.682Z,65.43
2018-08-21T04:54:38.242Z,65.05
2018-08-21T04:55:18.811Z,65.14
2018-08-21T04:55:59.372Z,64.86
2018-08-21T04:56:39.943Z,64.76
2018-08-21T04:57:20.499Z,65.05
2018-08-21T04:58:01.067Z,65.14
2018-08-21T04:58:41.671Z,65.33
2018-08-21T04:59:22.230Z,64.95
2018-08-21T05:00:02.787Z,65.14
2018-08-21T05:00:43.354Z,65.24
2018-08-21T05:01:23.938Z,65.14
2018-08-21T05:02:04.496Z,65.14
2018-08-21T05:02:45.060Z,65.05
2018-08-21T05:03:25.677Z,65.81
2018-08-21T05:04:06.318Z,65.63
2018-08-21T05:04:46.878Z,66.01
2018-08-21T05:05:27.458Z,66.01
2018-08-21T05:06:08.023Z,66.01
2018-08-21T05:06:48.583Z,65.33
2018-08-21T05:07:29.168Z,65.81
2018-08-21T05:08:09.747Z,65.24
2018-08-21T05:08:50.305Z,65.43
2018-08-21T05:09:30.876Z,65.14
2018-08-21T05:10:11.456Z,64.86
2018-08-21T05:10:52.001Z,64.56
2018-08-21T05:11:32.564Z,64.47
2018-08-21T05:12:13.124Z,64.76
2018-08-21T05:12:53.683Z,64.37
2018-08-21T05:13:34.267Z,64.08
2018-08-21T05:14:14.838Z,64.47
2018-08-21T05:14:55.400Z,65.24
2018-08-21T05:15:35.972Z,65.72
2018-08-21T05:16:16.530Z,64.37
2018-08-21T05:16:57.099Z,64.66
2018-08-21T05:17:37.676Z,64.66
2018-08-21T05:18:18.242Z,64.82
2018-08-21T05:18:58.802Z,64.63
2018-08-21T05:19:39.377Z,65.05
2018-08-21T05:20:19.939Z,65.14
2018-08-21T05:21:00.513Z,65.05
2018-08-21T05:21:41.075Z,65.05
2018-08-21T05:22:21.670Z,64.73
2018-08-21T05:23:02.324Z,65.14
2018-08-21T05:23:42.912Z,65.05
2018-08-21T05:24:23.486Z,64.95
2018-08-21T05:25:04.046Z,65.33
2018-08-21T05:25:44.613Z,65.53
2018-08-21T05:26:25.172Z,65.53
2018-08-21T05:27:05.734Z,65.33
2018-08-21T05:27:46.346Z,65.33
2018-08-21T05:28:26.975Z,66.1
2018-08-21T05:29:07.481Z,65.63
2018-08-21T05:29:48.057Z,65.14
2018-08-21T05:30:28.614Z,65.05
2018-08-21T05:31:09.191Z,65.24
2018-08-21T05:31:49.743Z,65.05
2018-08-21T05:32:30.316Z,65.05
2018-08-21T05:33:10.920Z,64.47
2018-08-21T05:33:51.486Z,64.56
2018-08-21T05:34:32.103Z,64.86
2018-08-21T05:35:12.665Z,65.14
2018-08-21T05:35:53.220Z,65.33
2018-08-21T05:36:33.879Z,64.95
2018-08-21T05:37:14.444Z,64.56
2018-08-21T05:37:55.012Z,64.47
2018-08-21T05:38:35.582Z,63.79
2018-08-21T05:39:16.151Z,63.51
2018-08-21T05:39:56.826Z,63.41
2018-08-21T05:40:37.391Z,62.83
2018-08-21T05:41:17.952Z,63.79
2018-08-21T05:41:58.521Z,64.56
2018-08-21T05:42:39.250Z,64.47
2018-08-21T05:43:19.828Z,63.51
2018-08-21T05:44:00.405Z,64.47
2018-08-21T05:44:40.972Z,64.47
2018-08-21T05:45:21.543Z,64.56
2018-08-21T05:46:02.153Z,64.47
2018-08-21T05:46:42.729Z,64.28
2018-08-21T05:47:23.275Z,64.56
2018-08-21T05:48:03.837Z,63.99
2018-08-21T05:48:44.400Z,63.79
2018-08-21T05:49:24.974Z,63.31
2018-08-21T05:50:06.258Z,63.7
2018-08-21T05:50:46.821Z,63.51
2018-08-21T05:51:27.448Z,63.51
2018-08-21T05:52:08.013Z,64.08
2018-08-21T05:52:48.566Z,63.6
2018-08-21T05:53:29.155Z,63.51
2018-08-21T05:54:09.745Z,63.79
2018-08-21T05:54:50.339Z,64.37
2018-08-21T05:55:30.933Z,64.08
2018-08-21T05:56:11.530Z,64.08
2018-08-21T05:56:52.063Z,63.79
2018-08-21T05:57:32.627Z,63.6
2018-08-21T05:58:13.298Z,62.83
2018-08-21T05:58:54.102Z,63.89
2018-08-21T05:59:34.833Z,63.41
2018-08-21T06:00:15.542Z,64.08
2018-08-21T06:00:56.106Z,63.51
2018-08-21T06:01:36.670Z,63.51
2018-08-21T06:02:17.297Z,63.99
2018-08-21T06:02:57.838Z,63.99
2018-08-21T06:03:38.415Z,63.51
2018-08-21T06:04:19.356Z,63.99
2018-08-21T06:04:59.982Z,63.51
2018-08-21T06:05:40.715Z,63.12
2018-08-21T06:06:21.271Z,63.79
2018-08-21T06:07:01.829Z,63.51
2018-08-21T06:07:42.441Z,63.02
2018-08-21T06:08:23.264Z,62.93
2018-08-21T06:09:03.818Z,63.51
2018-08-21T06:09:44.416Z,63.31
2018-08-21T06:10:25.152Z,63.12
2018-08-21T06:11:05.857Z,62.54
2018-08-21T06:11:46.685Z,62.93
2018-08-21T06:12:27.302Z,63.7
2018-08-21T06:13:07.863Z,63.99
2018-08-21T06:13:48.448Z,63.41
2018-08-21T06:14:29.018Z,63.41
2018-08-21T06:15:09.618Z,62.74
2018-08-21T06:15:50.175Z,62.93
2018-08-21T06:16:30.744Z,63.22
2018-08-21T06:17:11.299Z,62.93
2018-08-21T06:17:51.890Z,63.7
2018-08-21T06:18:32.597Z,63.02
2018-08-21T06:19:13.286Z,63.64
2018-08-21T06:19:53.848Z,62.48
2018-08-21T06:20:34.415Z,62.06
2018-08-21T06:21:15.004Z,62.38
2018-08-21T06:21:55.569Z,62.96
2018-08-21T06:22:36.230Z,62
2018-08-21T06:23:16.791Z,61.8
2018-08-21T06:23:57.452Z,61.52
2018-08-21T06:24:38.061Z,61.8
2018-08-21T06:25:18.632Z,62.67
2018-08-21T06:25:59.194Z,61.22
2018-08-21T06:26:39.772Z,61.55
2018-08-21T06:27:20.341Z,61.45
2018-08-21T06:28:00.901Z,61.83
2018-08-21T06:28:41.478Z,61.55
2018-08-21T06:29:22.049Z,61.07
2018-08-21T06:30:02.612Z,60.61
2018-08-21T06:30:43.180Z,59.55
2018-08-21T06:31:23.740Z,59.94
2018-08-21T06:32:04.361Z,59.17
2018-08-21T06:32:44.872Z,58.97
2018-08-21T06:33:25.454Z,58.49
2018-08-21T06:34:06.033Z,58.81
2018-08-21T06:34:46.604Z,59.39
2018-08-21T06:35:27.186Z,58.42
2018-08-21T06:36:07.836Z,58.72
2018-08-21T06:36:48.351Z,58.36
2018-08-21T06:37:28.940Z,57.68
2018-08-21T06:38:09.516Z,56.91
2018-08-21T06:38:50.073Z,56.43
2018-08-21T06:39:30.648Z,56.56
2018-08-21T06:40:11.214Z,56.56
2018-08-21T06:40:51.817Z,56.84
2018-08-21T06:41:32.388Z,56.56
2018-08-21T06:42:12.968Z,56.58
2018-08-21T06:42:53.552Z,55.23
2018-08-21T06:43:34.165Z,55.04
2018-08-21T06:44:14.716Z,54.65
2018-08-21T06:44:55.285Z,55.26
2018-08-21T06:45:35.851Z,54.77
2018-08-21T06:46:16.428Z,54.19
2018-08-21T06:46:57.044Z,53.91
2018-08-21T06:47:37.603Z,53.81
2018-08-21T06:48:18.182Z,53.42
2018-08-21T06:48:58.748Z,52.94
2018-08-21T06:49:39.314Z,53.55
2018-08-21T06:50:19.887Z,52.58
2018-08-21T06:51:00.455Z,52.48
2018-08-21T06:51:41.056Z,52.48
2018-08-21T06:52:21.709Z,52.87
2018-08-21T06:53:02.448Z,53.06
2018-08-21T06:53:45.515Z,52.51
2018-08-21T06:54:26.097Z,52.12
2018-08-21T06:55:06.706Z,52.12
2018-08-21T06:55:47.281Z,51.44
2018-08-21T06:56:27.893Z,51.83
2018-08-21T06:57:08.467Z,51.06
2018-08-21T06:57:49.047Z,50.28
2018-08-21T06:58:29.643Z,49.9
2018-08-21T06:59:10.336Z,50.67
2018-08-21T06:59:50.938Z,50.28
2018-08-21T07:00:31.523Z,49.8
2018-08-21T07:01:12.450Z,50.48
2018-08-21T07:01:53.073Z,50.86
2018-08-21T07:02:33.692Z,49.99
2018-08-21T07:03:14.281Z,48.83
2018-08-21T07:03:54.928Z,48.44
2018-08-21T07:04:35.593Z,48.54
2018-08-21T07:05:16.177Z,48.83
2018-08-21T07:05:56.744Z,49.82
2018-08-21T07:06:37.337Z,49.9
2018-08-21T07:07:17.966Z,50.31
2018-08-21T07:07:58.615Z,49.73
2018-08-21T07:08:39.266Z,49.82
2018-08-21T07:09:19.953Z,49.92
2018-08-21T07:10:00.597Z,50.4
2018-08-21T07:10:41.239Z,48.97
2018-08-21T07:11:21.931Z,47.91
2018-08-21T07:12:02.845Z,47.43
2018-08-21T07:12:43.519Z,46.94
2018-08-21T07:13:24.146Z,47.91
2018-08-21T07:14:05.096Z,47.81
2018-08-21T07:14:45.758Z,48.01
2018-08-21T07:15:26.588Z,47.91
2018-08-21T07:16:07.375Z,47.91
2018-08-21T07:16:47.960Z,48.11
2018-08-21T07:17:28.631Z,47.94
2018-08-21T07:18:09.174Z,47.36
2018-08-21T07:18:49.776Z,47.36
2018-08-21T07:19:30.391Z,47.26
2018-08-21T07:20:10.969Z,47.45
2018-08-21T07:20:51.551Z,47.16
2018-08-21T07:21:32.242Z,46.77
2018-08-21T07:22:14.848Z,47.26
2018-08-21T07:22:55.147Z,46.39
2018-08-21T07:23:35.786Z,45.64
2018-08-21T07:24:16.484Z,45.42
2018-08-21T07:24:57.173Z,45.44
2018-08-21T07:25:37.836Z,44.76
2018-08-21T07:26:18.399Z,43.99
2018-08-21T07:26:58.956Z,43.89
2018-08-21T07:27:39.546Z,43.7
2018-08-21T07:28:20.169Z,44.27
2018-08-21T07:29:00.831Z,42.63
2018-08-21T07:29:41.446Z,43.6
2018-08-21T07:30:22.089Z,44.09
2018-08-21T07:31:02.668Z,44.27
2018-08-21T07:31:43.333Z,44.67
2018-08-21T07:32:23.907Z,44.47
2018-08-21T07:33:04.498Z,43.79
2018-08-21T07:33:45.059Z,43.62
2018-08-21T07:34:25.666Z,43.91
2018-08-21T07:35:06.239Z,43.82
2018-08-21T07:35:46.929Z,44.1
2018-08-21T07:36:27.450Z,43.52
2018-08-21T07:37:08.045Z,42.07
2018-08-21T07:37:48.679Z,43.13
2018-08-21T07:38:29.295Z,43.62
2018-08-21T07:39:09.900Z,43.52
2018-08-21T07:39:50.496Z,42.85
2018-08-21T07:40:31.113Z,42.85
2018-08-21T07:41:11.755Z,41.58
2018-08-21T07:41:52.332Z,41
2018-08-21T07:42:32.926Z,42.75
2018-08-21T07:43:13.502Z,42.65
2018-08-21T07:43:54.102Z,42.85
2018-08-21T07:44:34.717Z,42.46
2018-08-21T07:45:15.341Z,43.43
2018-08-21T07:45:55.955Z,42.46
2018-08-21T07:46:36.555Z,41.68
2018-08-21T07:47:17.176Z,41.39
2018-08-21T07:47:57.781Z,40.15
2018-08-21T07:48:38.361Z,40.03
2018-08-21T07:49:18.951Z,41
2018-08-21T07:49:59.524Z,41.1
2018-08-21T07:50:40.161Z,40.92
2018-08-21T07:51:20.999Z,41.12
2018-08-21T07:52:01.589Z,41
2018-08-21T07:52:42.183Z,41.2
2018-08-21T07:53:22.772Z,41
2018-08-21T07:54:03.338Z,41
2018-08-21T07:54:43.896Z,41.02
2018-08-21T07:55:24.524Z,41.41
2018-08-21T07:56:05.136Z,40.03
2018-08-21T07:56:45.705Z,39.94
2018-08-21T07:57:26.280Z,40.52
2018-08-21T07:58:06.942Z,40.71
2018-08-21T07:58:47.441Z,40.71
2018-08-21T07:59:28.021Z,41.1
2018-08-21T08:00:08.650Z,40.61
2018-08-21T08:00:49.272Z,40.91
2018-08-21T08:01:29.871Z,41.2
2018-08-21T08:02:10.448Z,41.2
2018-08-21T08:02:51.015Z,41
2018-08-21T08:03:31.616Z,40.03
2018-08-21T08:04:12.264Z,41.17
2018-08-21T08:04:52.812Z,41.37
2018-08-21T08:05:33.412Z,42.05
2018-08-21T08:06:13.978Z,41.66
2018-08-21T08:06:54.579Z,41.86
2018-08-21T08:07:35.136Z,43.21
2018-08-21T08:08:15.734Z,42.54
2018-08-21T08:08:56.315Z,41.95
2018-08-21T08:09:36.900Z,42.72
2018-08-21T08:10:17.493Z,42.65
2018-08-21T08:10:58.081Z,42.54
2018-08-21T08:11:38.659Z,42.72
2018-08-21T08:12:19.222Z,42.72
2018-08-21T08:12:59.795Z,42.72
2018-08-21T08:13:40.484Z,42.72
2018-08-21T08:14:20.950Z,42.54
2018-08-21T08:15:01.533Z,42.72
2018-08-21T08:15:42.114Z,41.35
2018-08-21T08:16:22.680Z,42.63
2018-08-21T08:17:03.277Z,42.13
2018-08-21T08:17:43.865Z,43
2018-08-21T08:18:24.384Z,43.58
2018-08-21T08:19:05.021Z,43.68
2018-08-21T08:19:45.560Z,43.38
2018-08-21T08:20:26.137Z,42.32
2018-08-21T08:21:06.725Z,42.61
2018-08-21T08:21:47.375Z,42.71
2018-08-21T08:22:27.954Z,42.71
2018-08-21T08:23:08.617Z,42.8
2018-08-21T08:23:49.099Z,42.9
2018-08-21T08:24:29.675Z,42.8
2018-08-21T08:25:10.263Z,42.14
2018-08-21T08:25:50.843Z,42.13
2018-08-21T08:26:31.400Z,42.03
2018-08-21T08:27:11.977Z,41.16
2018-08-21T08:27:52.542Z,41.64
2018-08-21T08:28:33.106Z,41.93
2018-08-21T08:29:13.706Z,42.61
2018-08-21T08:29:54.279Z,41.25
2018-08-21T08:30:34.846Z,40.28
2018-08-21T08:31:15.407Z,41.06
2018-08-21T08:31:55.997Z,41.25
2018-08-21T08:32:36.583Z,42.03
2018-08-21T08:33:17.150Z,43.29
2018-08-21T08:33:57.706Z,42.03
2018-08-21T08:34:38.359Z,41.16
2018-08-21T08:35:18.920Z,40.48
2018-08-21T08:35:59.566Z,40.77
2018-08-21T08:36:40.084Z,41.24
2018-08-21T08:37:20.644Z,41.91
2018-08-21T08:38:01.243Z,43.17
2018-08-21T08:38:41.837Z,43.65
2018-08-21T08:39:22.468Z,42.78
2018-08-21T08:40:03.056Z,41.72
2018-08-21T08:40:43.611Z,40.94
2018-08-21T08:41:24.237Z,40.65
2018-08-21T08:42:04.919Z,41.33
2018-08-21T08:42:45.316Z,42.2
2018-08-21T08:43:25.879Z,43.75
2018-08-21T08:44:06.493Z,43.15
2018-08-21T08:44:47.056Z,44.5
2018-08-21T08:45:27.650Z,44.31